MMCZ 090247Z 12003KT 7SM SKC 24/24 A3003 RMK SLP174 52012 904 SC= 090249

MMCZ 090142Z 09004KT 7SM SKC ///// A3002 RMK SC= 090145

MMCZ 090054Z 12002KT 7SM SKC 24/24 A3001 RMK SC= 090054

MMCZ 082343Z 11004KT 7SM SKC 26/26 A3000 RMK SLP162 52005 902 SC CI= 082344

MMCZ 082249Z 10005KT 8SM FEW015 14/13 A2999 RMK 8/500 VC TCU CI= 082251

MMCZ 082149Z 12008KT 8SM SCT015TCU 28/24 A2998 RMK 8/200 SC CI= 082150

MMCZ 082040Z 11008KT 8SM SCT015TCU 29/24 A2998 RMK SLP157 57017 900 8/200 SC CI= 082041

MMCZ 081956Z 13010KT 8SM BKN015TCU 29/24 A2999 RMK 8/200 SC CI= 081956

MMCZ 081850Z 11010KT 8SM BKN015TCU 30/24 A3000 RMK 8/200 SC CI= 081850

MMCZ 081752Z 11007KT 8SM BKN015TCU 29/24 A3003 RMK SLP174 57008 903 8/200 SC CI= 081755

MMCZ 081641Z 11007KT 8SM BKN015TCU 29/25 A3006 RMK 8/200 SC CI= 081642

MMCZ 081545Z 11008KT 8SM BKN015TCU 29/25 A3007 RMK 8/200 SC CI= 081546

MMCZ 081448Z 11005KT 8SM BKN015TCU 28/27 A3007 RMK SLP186 52022 907 8/200 SC CI= 081451

MMCZ 081341Z 14002KT 8SM SCT015 26/26 A3004 RMK 8/500 CU= 081342

MMCZ 081248Z 00000KT 8SM SCT015 BKN250 ///// A3002 RMK 8/508= 081248

MMCZ 081204Z RTD 00000KT 7SM FEW015 BKN250 ///// A3000 RMK SLP164 5//// 901 8/508 RTS= 081208

MMCZ 080244Z 12004KT 7SM FEW015 ///// A3002 RMK SLP170 52010 952 8/500 CI= 080245

MMCZ 080145Z 00000KT 7SM FEW015 ///// A3001 RMK 8/500 CI= 080146

COR MMCZ 080042Z 12004KT 7SM FEW015 25/25 A3000 RMK 8/500 CI= 080043

MMCZ 080042Z 12004KT 7SM FEW015 25/25 A3000 RMK 8/500 SC CI= 080043

MMCZ 072345Z 11004KT 7SM FEW015 25/25 A2999 RMK SLP160 52003 900 8/500 CI= 072346

MMCZ 072243Z 12006KT 8SM FEW015TCU 27/27 A2998 RMK 8/200 CI= 072243

MMCZ 072141Z 11005KT 8SM FEW015TCU 28/27 A2997 RMK 8/200 SC CI= 072142

MMCZ 072041Z 12009KT 7SM SCT015TCU 29/26 A2998 RMK SLP157 57014 903 8/200 OCNL DROPS CI= 072048

MMCZ 071943Z 11008KT 8SM SCT015TCU 29/24 A2998 RMK 8/200 CI= 071943

MMCZ 071847Z 11008KT 8SM SCT015 30/24 A2999 RMK 8/100 DSNT TCU NW CI= 071848

MMCZ 071742Z 10008KT 8SM SCT015 29/25 A3002 RMK SLP171 57008 903 8/100 DSNT TCU NW= 071743

MMCZ 071644Z 11009KT 8SM SCT015 29/24 A3005 RMK 8/100 MDT CU SC CI= 071647

MMCZ 071547Z 13008KT 8SM SCT015 29/26 A3006 RMK 8/100 MDT CU SC CI= 071548

MMCZ 071442Z 10009KT 8SM FEW015 28/27 A3005 RMK SLP179 52016 953 8/100 SC CI= 071443

MMCZ 071342Z 10005KT 8SM FEW015 26/26 A3003 RMK 8/100 MDT CU SC CI= 071343

MMCZ 071246Z 12002KT 8SM FEW015 ///// A3002 RMK 8/100 MDT CU SC CI= 071247

MMCZ 071153Z 12003KT 7SM FEW015 ///// A3000 RMK SLP163 5//// 953 8/100 MDT CU SC CI RTS= 071154

MMCZ 070240Z 00000KT 7SM SCT250 25/25 A3002 RMK SLP172 52012 952 8/008 SC= 070241

MMCZ 070145Z 13003KT 7SM SCT250 25/25 A3001 RMK 8/008 SC HZY= 070146

MMCZ 070041Z 00000KT 7SM SCT250 25/25 A3000 RMK 8/008 SC HZY= 070042

MMCZ 062341Z 14003KT 7SM SCT250 26/26 A2999 RMK SLP160 52006 901 8/008 SC HZY= 062342

MMCZ 062243Z 15005KT 8SM FEW015 27/27 A2998 RMK 8/100 SC CI= 062243

MMCZ 062142Z 13005KT 8SM FEW015 28/26 A2997 RMK 8/100 SC= 062143

MMCZ 062043Z 17009KT 8SM SCT015TCU 29/25 A2997 RMK SLP154 57014 903 8/200 SC= 062044

MMCZ 061946Z 15006KT 8SM SCT015TCU 30/25 A2998 RMK 8/200 SC= 061947

MMCZ 061842Z 15004KT 8SM SCT015 30/24 A2999 RMK 8/500 CI CU= 061842

MMCZ 061746Z 15004KT 8SM SCT015 30/25 A3001 RMK SLP168 57014 952 8/100 CI= 061748

MMCZ 061643Z 15004KT 8SM FEW015 29/24 A3004 RMK 8/100 CI= 061643

MMCZ 061546Z 13006KT 8SM FEW015 29/26 A3005 RMK 8/500 CI= 061547

MMCZ 061446Z 13008KT 8SM FEW015 28/27 A3005 RMK SLP182 52016 956 8/500 CI= 061447

MMCZ 061347Z 13005KT 8SM FEW015 27/27 A3004 RMK 8/500 CI= 061347

MMCZ 061252Z 00000KT 8SM SKC 25/24 A3002 RMK SC MSG TX MMMX= 061252

MMCZ 061217Z RTD 00000KT 7SM FEW015 25/24 A3001 RMK SLP166 5//// 954 8/500 CI RTS= 061218

MMCZ 061200Z 00000KT 7SM FEW015 25/24 A3001 RMK SLP/// 5//// 9// 8/500 CI MSG TX MMMX= 061200